Time;durP1;ratioP1;P1;durP2;ratioP2;P2;SDS_P1;SDS_P2;PMS_P1;PMS_P2;Temp;Humidity;BMP_temperature;BMP_pressure;BME280_temperature;BME280_humidity;BME280_pressure;Samples;Min_cycle;Max_cycle;Signal;HPM_P1;HPM_P2
2021/01/11 00:00:05;;;;;;;35.67;21.17;;;3.30;99.90;;;;;;4177828;28;20112;-81
2021/01/11 00:02:05;;;;;;;33.63;23.80;;;3.30;99.90;;;;;;4160218;28;20053;-82
2021/01/11 00:04:06;;;;;;;36.95;22.42;;;3.40;99.90;;;;;;4159933;28;20033;-81
2021/01/11 00:06:06;;;;;;;34.67;21.58;;;3.30;99.90;;;;;;4159721;28;20025;-82
2021/01/11 00:08:07;;;;;;;38.75;23.77;;;3.30;99.90;;;;;;4157920;28;20124;-82
2021/01/11 00:10:10;;;;;;;37.00;21.15;;;3.30;99.90;;;;;;4177695;28;20150;-82
2021/01/11 00:12:10;;;;;;;36.05;24.02;;;3.40;99.90;;;;;;4177525;28;20021;-82
2021/01/11 00:14:11;;;;;;;33.85;22.40;;;3.40;99.90;;;;;;4178217;28;20380;-81
2021/01/11 00:16:11;;;;;;;32.67;22.20;;;3.40;99.90;;;;;;4161246;28;20037;-81
2021/01/11 00:18:12;;;;;;;37.50;24.02;;;3.40;99.90;;;;;;4178841;28;20025;-82
2021/01/11 00:20:13;;;;;;;35.00;22.98;;;3.40;99.90;;;;;;4161055;28;20485;-82
2021/01/11 00:22:14;;;;;;;39.97;24.80;;;3.40;99.90;;;;;;4178976;28;20029;-82
2021/01/11 00:24:15;;;;;;;38.05;23.70;;;3.40;99.90;;;;;;4161397;28;20037;-82
2021/01/11 00:26:16;;;;;;;37.38;23.05;;;3.40;99.90;;;;;;4178975;28;20391;-82
2021/01/11 00:28:16;;;;;;;36.53;22.25;;;3.40;99.90;;;;;;4161257;28;20111;-82
2021/01/11 00:30:18;;;;;;;36.58;22.60;;;3.30;99.90;;;;;;4178821;28;20170;-82
2021/01/11 00:32:18;;;;;;;34.50;22.40;;;3.30;99.90;;;;;;4179000;28;20506;-82
2021/01/11 00:34:19;;;;;;;37.90;22.40;;;3.30;99.90;;;;;;4161376;28;20114;-82
2021/01/11 00:36:20;;;;;;;38.70;22.55;;;3.30;99.90;;;;;;4178931;28;20033;-82
2021/01/11 00:38:21;;;;;;;34.50;19.65;;;3.30;99.90;;;;;;4177869;28;20496;-82
2021/01/11 00:40:21;;;;;;;38.35;23.77;;;3.30;99.90;;;;;;4149741;28;20033;-82
2021/01/11 00:42:22;;;;;;;37.47;21.25;;;3.40;99.90;;;;;;4166626;28;20113;-82
2021/01/11 00:44:24;;;;;;;38.20;22.10;;;3.40;99.90;;;;;;4178957;28;20069;-82
2021/01/11 00:46:26;;;;;;;36.13;23.00;;;3.40;99.90;;;;;;4178979;28;20041;-82
2021/01/11 00:48:27;;;;;;;34.25;22.70;;;3.50;99.90;;;;;;4163411;28;20045;-82
2021/01/11 00:50:27;;;;;;;38.22;21.50;;;3.50;99.90;;;;;;4164272;28;20036;-82
2021/01/11 00:52:28;;;;;;;33.33;20.90;;;3.50;99.90;;;;;;4181760;28;20476;-80
2021/01/11 00:54:28;;;;;;;36.67;21.67;;;3.50;99.90;;;;;;4181725;28;20037;-81
2021/01/11 00:56:33;;;;;;;36.83;22.45;;;3.50;99.90;;;;;;4164142;28;20056;-82
2021/01/11 00:58:33;;;;;;;34.28;20.50;;;3.50;99.90;;;;;;4164042;28;20037;-82
2021/01/11 01:00:34;;;;;;;32.30;19.27;;;3.50;99.90;;;;;;4181874;28;20021;-82
2021/01/11 01:02:35;;;;;;;33.67;20.90;;;3.50;99.90;;;;;;4181630;28;20025;-82
2021/01/11 01:04:35;;;;;;;34.35;21.83;;;3.50;99.90;;;;;;4179844;28;20524;-82
2021/01/11 01:06:36;;;;;;;38.17;23.20;;;3.50;99.90;;;;;;4181264;28;20029;-82
2021/01/11 01:08:37;;;;;;;38.22;22.38;;;3.50;99.90;;;;;;4180725;28;20166;-82
2021/01/11 01:10:38;;;;;;;37.00;22.15;;;3.50;99.90;;;;;;4179798;28;20607;-81
2021/01/11 01:12:39;;;;;;;36.22;20.63;;;3.50;99.90;;;;;;4179991;28;20029;-82
2021/01/11 01:14:40;;;;;;;36.50;22.17;;;3.50;99.90;;;;;;4162068;28;20026;-82
2021/01/11 01:16:40;;;;;;;38.17;22.33;;;3.60;99.90;;;;;;4179685;28;20025;-82
2021/01/11 01:18:41;;;;;;;38.47;24.80;;;3.60;99.90;;;;;;4162113;28;20026;-80
2021/01/11 01:20:42;;;;;;;42.03;23.23;;;3.60;99.90;;;;;;4162085;28;20495;-82
2021/01/11 01:22:51;;;;;;;39.67;24.35;;;3.50;99.90;;;;;;4161998;28;20052;-81
2021/01/11 01:24:52;;;;;;;36.97;21.23;;;3.50;99.90;;;;;;4161855;28;20034;-81
2021/01/11 01:26:52;;;;;;;38.17;23.10;;;3.50;99.90;;;;;;4179459;28;20539;-82
2021/01/11 01:28:53;;;;;;;35.40;23.63;;;3.50;99.90;;;;;;4181481;28;20017;-82
2021/01/11 01:30:53;;;;;;;37.25;24.17;;;3.60;99.90;;;;;;4180892;28;20115;-82
2021/01/11 01:32:56;;;;;;;37.50;24.20;;;3.60;99.90;;;;;;4181298;28;20053;-83
2021/01/11 01:34:56;;;;;;;38.60;23.80;;;3.60;99.90;;;;;;4163429;28;20036;-83
2021/01/11 01:36:57;;;;;;;35.75;23.55;;;3.50;99.90;;;;;;4163945;28;20120;-82
2021/01/11 01:38:58;;;;;;;38.50;24.33;;;3.50;99.90;;;;;;4163481;28;20056;-82
2021/01/11 01:40:58;;;;;;;43.03;23.13;;;3.50;99.90;;;;;;4163192;28;20493;-82
2021/01/11 01:42:59;;;;;;;40.75;25.00;;;3.50;99.90;;;;;;4163372;28;20060;-83
2021/01/11 01:44:59;;;;;;;36.83;22.50;;;3.60;99.90;;;;;;4180692;28;20033;-82
2021/01/11 01:47:00;;;;;;;39.03;24.65;;;3.60;99.90;;;;;;4163148;28;20029;-83
2021/01/11 01:49:01;;;;;;;36.47;22.27;;;3.60;99.90;;;;;;4180854;28;20017;-79
2021/01/11 01:51:02;;;;;;;38.95;20.40;;;3.60;99.90;;;;;;4163148;28;20171;-82
2021/01/11 01:53:03;;;;;;;35.50;20.08;;;3.60;99.90;;;;;;4180790;28;20072;-82
2021/01/11 01:55:05;;;;;;;40.05;22.58;;;3.60;99.90;;;;;;4180825;28;20037;-82
2021/01/11 01:57:08;;;;;;;39.05;24.98;;;3.60;99.90;;;;;;4163122;28;20112;-81
2021/01/11 01:59:10;;;;;;;37.90;24.05;;;3.60;99.90;;;;;;4179847;28;20032;-81
2021/01/11 02:01:10;;;;;;;39.72;25.42;;;3.60;99.90;;;;;;4163089;28;20030;-81
2021/01/11 02:03:11;;;;;;;45.58;26.08;;;3.60;99.90;;;;;;4164790;28;20153;-83
2021/01/11 02:05:12;;;;;;;44.58;24.52;;;3.60;99.90;;;;;;4162348;28;20398;-83
2021/01/11 02:07:24;;;;;;;41.47;26.63;;;3.60;99.90;;;;;;4178969;28;20111;-81
2021/01/11 02:10:09;;;;;;;43.78;26.35;;;3.60;99.90;;;;;;4168332;28;20025;-82
2021/01/11 02:12:18;;;;;;;44.15;26.58;;;3.60;99.90;;;;;;4145102;28;20117;-82
2021/01/11 02:14:37;;;;;;;45.25;24.80;;;3.50;99.90;;;;;;4178473;28;20017;-82
2021/01/11 02:17:13;;;;;;;48.80;28.77;;;3.50;99.90;;;;;;4178456;28;20055;-83
2021/01/11 02:19:16;;;;;;;48.22;28.27;;;3.50;99.90;;;;;;4176424;28;20048;-82
2021/01/11 02:21:47;;;;;;;53.20;31.80;;;3.50;99.90;;;;;;4178957;28;20017;-82
2021/01/11 02:24:18;;;;;;;62.65;32.63;;;3.40;99.90;;;;;;4180368;28;20033;-82
2021/01/11 02:26:57;;;;;;;55.92;34.08;;;3.40;99.90;;;;;;4168654;28;20507;-82
2021/01/11 02:29:04;;;;;;;55.90;30.65;;;3.30;99.90;;;;;;4162826;28;20124;-82
2021/01/11 02:31:06;;;;;;;63.00;32.88;;;3.30;99.90;;;;;;4178913;28;20029;-82
2021/01/11 02:33:11;;;;;;;62.42;32.40;;;3.30;99.90;;;;;;4180243;28;20112;-83
2021/01/11 02:35:13;;;;;;;66.15;36.53;;;3.30;99.90;;;;;;4180315;28;20102;-82
2021/01/11 02:37:14;;;;;;;63.15;37.90;;;3.20;99.90;;;;;;4180121;28;20443;-82
2021/01/11 02:39:14;;;;;;;60.80;33.70;;;3.20;99.90;;;;;;4180418;28;20108;-82
2021/01/11 02:41:15;;;;;;;69.63;37.33;;;3.10;99.90;;;;;;4162038;28;20029;-81
2021/01/11 02:43:17;;;;;;;66.25;38.70;;;3.10;99.90;;;;;;4180093;28;20021;-83
2021/01/11 02:45:18;;;;;;;63.60;36.47;;;3.00;99.90;;;;;;4179923;28;20021;-81
2021/01/11 02:47:26;;;;;;;72.55;39.03;;;3.00;99.90;;;;;;4162306;28;20036;-83
2021/01/11 02:49:35;;;;;;;73.22;40.20;;;3.00;99.90;;;;;;4180243;28;20040;-82
2021/01/11 02:51:57;;;;;;;68.57;35.75;;;3.00;99.90;;;;;;4179961;28;20056;-83
2021/01/11 02:54:18;;;;;;;66.03;38.60;;;2.90;99.90;;;;;;4162348;28;20037;-82
2021/01/11 02:56:32;;;;;;;64.40;37.97;;;2.90;99.90;;;;;;4179779;28;20029;-82
2021/01/11 02:58:45;;;;;;;72.75;39.40;;;2.90;99.90;;;;;;4162362;28;20032;-82
2021/01/11 03:00:48;;;;;;;75.00;40.40;;;2.90;99.90;;;;;;4179764;28;20029;-82
2021/01/11 03:02:49;;;;;;;69.85;38.40;;;3.00;99.90;;;;;;4162528;28;20029;-82
2021/01/11 03:04:50;;;;;;;69.93;39.95;;;3.00;99.90;;;;;;4180089;28;20103;-82
2021/01/11 03:07:01;;;;;;;78.13;42.90;;;2.90;99.90;;;;;;4179610;28;20116;-82
2021/01/11 03:09:07;;;;;;;75.50;44.30;;;2.90;99.90;;;;;;4160282;28;20029;-81
2021/01/11 03:11:07;;;;;;;79.30;41.70;;;2.90;99.90;;;;;;4178139;28;20036;-83
2021/01/11 03:13:08;;;;;;;83.32;44.80;;;2.80;99.90;;;;;;4178290;28;20472;-81
2021/01/11 03:15:09;;;;;;;85.35;47.20;;;2.80;99.90;;;;;;4160442;28;20029;-81
2021/01/11 03:17:10;;;;;;;80.25;44.63;;;2.70;99.90;;;;;;4160103;28;20057;-82
2021/01/11 03:19:11;;;;;;;82.93;44.83;;;2.70;99.90;;;;;;4160413;28;20033;-81
2021/01/11 03:21:12;;;;;;;88.13;47.05;;;2.70;99.90;;;;;;4177988;28;20032;-82
2021/01/11 03:23:12;;;;;;;80.22;44.60;;;2.60;99.90;;;;;;4178087;28;20036;-82
2021/01/11 03:25:13;;;;;;;92.30;46.67;;;2.70;99.90;;;;;;4178230;28;20035;-81
2021/01/11 03:27:13;;;;;;;81.95;43.22;;;2.60;99.90;;;;;;4161049;28;20060;-83
2021/01/11 03:29:15;;;;;;;87.10;46.10;;;2.60;99.90;;;;;;4179548;28;20029;-82
2021/01/11 03:31:16;;;;;;;87.35;46.38;;;2.60;99.90;;;;;;4161841;28;20068;-82
2021/01/11 03:33:17;;;;;;;94.25;47.92;;;2.60;99.90;;;;;;4179607;28;20033;-82
2021/01/11 03:35:18;;;;;;;92.80;48.35;;;2.50;99.90;;;;;;4179616;28;20522;-82
2021/01/11 03:37:19;;;;;;;89.72;43.58;;;2.50;99.90;;;;;;4179385;28;20123;-82
2021/01/11 03:39:19;;;;;;;83.00;41.22;;;2.50;99.90;;;;;;4179655;28;20033;-82
2021/01/11 03:41:20;;;;;;;100.85;52.10;;;2.40;99.90;;;;;;4161361;28;20032;-81
2021/01/11 03:43:21;;;;;;;104.50;52.28;;;2.40;99.90;;;;;;4179553;28;20041;-82
2021/01/11 03:45:21;;;;;;;103.18;47.58;;;2.40;99.90;;;;;;4179523;28;20087;-82
2021/01/11 03:47:22;;;;;;;99.10;47.50;;;2.40;99.90;;;;;;4179551;28;20082;-82
2021/01/11 03:49:23;;;;;;;108.22;50.15;;;2.40;99.90;;;;;;4161794;28;20045;-82
2021/01/11 03:51:24;;;;;;;105.78;50.60;;;2.40;99.90;;;;;;4179273;28;20101;-81
2021/01/11 03:53:24;;;;;;;112.70;53.80;;;2.40;99.90;;;;;;4179358;28;20148;-81
2021/01/11 03:55:25;;;;;;;104.55;50.47;;;2.40;99.90;;;;;;4161807;28;20037;-81
2021/01/11 03:57:29;;;;;;;109.15;51.58;;;2.40;99.90;;;;;;4179252;28;20045;-82
2021/01/11 03:59:29;;;;;;;107.25;47.60;;;2.40;99.90;;;;;;4161670;28;20116;-82
2021/01/11 04:01:34;;;;;;;113.13;48.03;;;2.40;99.90;;;;;;4161567;28;20542;-82
2021/01/11 04:03:35;;;;;;;99.72;47.60;;;2.40;99.90;;;;;;4179577;28;20132;-82
2021/01/11 04:05:35;;;;;;;114.45;48.03;;;2.40;99.90;;;;;;4161425;28;20042;-82
2021/01/11 04:07:36;;;;;;;117.43;48.55;;;2.30;99.90;;;;;;4179245;28;20090;-82
2021/01/11 04:09:37;;;;;;;118.18;50.85;;;2.40;99.90;;;;;;4159149;28;20528;-81
2021/01/11 04:11:37;;;;;;;123.47;50.40;;;2.40;99.90;;;;;;4178933;28;20483;-82
2021/01/11 04:13:38;;;;;;;115.15;50.88;;;2.40;99.90;;;;;;4161287;28;20099;-82
2021/01/11 04:15:39;;;;;;;117.90;47.92;;;2.40;99.90;;;;;;4161485;28;20452;-82
2021/01/11 04:17:40;;;;;;;116.32;44.38;;;2.40;99.90;;;;;;4161313;28;20038;-82
2021/01/11 04:19:40;;;;;;;126.15;53.05;;;2.40;99.90;;;;;;4179092;28;20595;-82
2021/01/11 04:21:41;;;;;;;102.82;42.08;;;2.40;99.90;;;;;;4179118;28;20048;-83
2021/01/11 04:23:42;;;;;;;111.20;46.58;;;2.40;99.90;;;;;;4181442;28;20411;-81
2021/01/11 04:25:42;;;;;;;119.20;48.00;;;2.50;99.90;;;;;;4182326;28;20044;-81
2021/01/11 04:27:43;;;;;;;135.98;52.35;;;2.50;99.90;;;;;;4182219;28;20033;-82
2021/01/11 04:29:44;;;;;;;119.25;47.40;;;2.40;99.90;;;;;;4181730;28;20041;-82
2021/01/11 04:31:47;;;;;;;141.13;47.80;;;2.40;99.90;;;;;;4164470;28;20042;-81
2021/01/11 04:33:48;;;;;;;142.45;50.80;;;2.50;99.90;;;;;;4181757;28;20475;-81
2021/01/11 04:35:48;;;;;;;144.77;51.42;;;2.40;99.90;;;;;;4182098;28;20033;-82
2021/01/11 04:37:49;;;;;;;110.68;41.75;;;2.50;99.90;;;;;;4164127;28;20124;-82
2021/01/11 04:39:50;;;;;;;118.38;46.97;;;2.50;99.90;;;;;;4182172;28;20032;-81
2021/01/11 04:41:51;;;;;;;136.13;47.58;;;2.50;99.90;;;;;;4181918;28;20094;-82
2021/01/11 04:43:54;;;;;;;141.80;50.60;;;2.50;99.90;;;;;;4182152;28;20033;-82
2021/01/11 04:45:57;;;;;;;128.40;49.80;;;2.50;99.90;;;;;;4164145;28;20037;-82
2021/01/11 04:47:59;;;;;;;;;;;2.50;99.90;;;;;;4182431;28;20502;-82
2021/01/11 04:50:02;;;;;;;134.85;46.33;;;2.40;99.90;;;;;;4181733;28;19908;-82
2021/01/11 04:52:05;;;;;;;132.63;47.58;;;2.40;99.90;;;;;;4181447;28;20057;-81
2021/01/11 04:54:07;;;;;;;128.60;43.90;;;2.40;99.90;;;;;;4181676;28;20087;-81
2021/01/11 04:56:11;;;;;;;128.75;45.38;;;2.40;99.90;;;;;;4181848;28;20442;-81
2021/01/11 04:58:12;;;;;;;137.10;47.05;;;2.40;99.90;;;;;;4162337;28;20592;-82
2021/01/11 05:00:16;;;;;;;125.68;48.45;;;2.40;99.90;;;;;;4180272;28;20029;-82
2021/01/11 05:02:21;;;;;;;142.45;48.15;;;2.50;99.90;;;;;;4180122;28;20021;-80
2021/01/11 05:04:22;;;;;;;159.23;53.00;;;2.40;99.90;;;;;;4180157;28;20053;-81
2021/01/11 05:06:22;;;;;;;156.05;52.10;;;2.40;99.90;;;;;;4180138;28;20029;-81
2021/01/11 05:08:23;;;;;;;150.77;54.47;;;2.40;99.90;;;;;;4162016;28;20053;-81
2021/01/11 05:10:30;;;;;;;157.00;51.60;;;2.50;99.90;;;;;;4162036;28;20374;-81
2021/01/11 05:12:30;;;;;;;133.30;45.42;;;2.50;99.90;;;;;;4179991;28;20033;-82
2021/01/11 05:14:31;;;;;;;134.63;42.67;;;2.40;99.90;;;;;;4180636;28;20040;-81
2021/01/11 05:16:33;;;;;;;142.73;47.20;;;2.50;99.90;;;;;;4163888;28;20040;-82
2021/01/11 05:18:34;;;;;;;132.57;47.67;;;2.50;99.90;;;;;;4181066;28;20072;-82
2021/01/11 05:20:36;;;;;;;135.68;47.53;;;2.60;99.90;;;;;;4181438;28;20033;-82
2021/01/11 05:22:38;;;;;;;158.93;54.85;;;2.50;99.90;;;;;;4181375;28;20116;-80
2021/01/11 05:24:40;;;;;;;144.63;50.05;;;2.50;99.90;;;;;;4181566;28;20037;-82
2021/01/11 05:26:41;;;;;;;120.03;42.15;;;2.50;99.90;;;;;;4162851;28;20154;-82
2021/01/11 05:28:42;;;;;;;164.27;53.33;;;2.60;99.90;;;;;;4179953;28;20499;-81
2021/01/11 05:30:48;;;;;;;175.30;56.08;;;2.60;99.90;;;;;;4179509;28;20032;-82
2021/01/11 05:32:48;;;;;;;170.93;55.70;;;2.50;99.90;;;;;;4179845;28;20029;-82
2021/01/11 05:34:53;;;;;;;163.02;53.85;;;2.50;99.90;;;;;;4180117;28;20040;-81
2021/01/11 05:36:53;;;;;;;161.40;54.67;;;2.60;99.90;;;;;;4163436;28;20080;-80
2021/01/11 05:38:54;;;;;;;148.45;50.03;;;2.60;99.90;;;;;;4162973;28;20431;-82
2021/01/11 05:40:55;;;;;;;160.00;56.08;;;2.60;99.90;;;;;;4161511;28;20033;-82
2021/01/11 05:42:59;;;;;;;168.10;55.60;;;2.60;99.90;;;;;;4161721;28;20060;-82
2021/01/11 05:45:16;;;;;;;160.50;53.15;;;2.70;99.90;;;;;;4162146;28;20108;-82
2021/01/11 05:47:17;;;;;;;160.40;57.13;;;2.60;99.90;;;;;;4163011;28;20394;-82
2021/01/11 05:49:17;;;;;;;165.45;55.92;;;2.70;99.90;;;;;;4162947;28;20033;-82
2021/01/11 05:51:23;;;;;;;155.80;54.08;;;2.70;99.90;;;;;;4180280;28;20481;-83
2021/01/11 05:53:25;;;;;;;161.38;53.00;;;2.70;99.90;;;;;;4180660;28;20408;-82
2021/01/11 05:55:31;;;;;;;149.57;52.97;;;2.70;99.90;;;;;;4162977;28;20464;-82
2021/01/11 05:57:32;;;;;;;149.27;56.10;;;2.80;99.90;;;;;;4162924;28;20464;-82
2021/01/11 05:59:33;;;;;;;157.70;57.03;;;2.70;99.90;;;;;;4179255;28;20033;-83
2021/01/11 06:01:35;;;;;;;157.73;56.58;;;2.80;99.90;;;;;;4161496;28;20033;-82
2021/01/11 06:03:35;;;;;;;144.65;53.72;;;2.80;99.90;;;;;;4159591;28;20038;-83
2021/01/11 06:05:36;;;;;;;141.18;53.65;;;2.80;99.90;;;;;;4154514;28;20045;-82
2021/01/11 06:07:38;;;;;;;127.32;49.33;;;2.80;99.90;;;;;;4161958;28;20080;-82
2021/01/11 06:09:39;;;;;;;135.50;50.47;;;2.80;99.90;;;;;;4178290;28;20395;-82
2021/01/11 06:11:42;;;;;;;136.77;55.25;;;2.90;99.90;;;;;;4160098;28;20041;-82
2021/01/11 06:13:47;;;;;;;133.38;53.22;;;2.90;99.90;;;;;;4159944;28;20059;-83
2021/01/11 06:15:50;;;;;;;119.50;44.70;;;2.90;99.90;;;;;;4177909;28;20120;-82
2021/01/11 06:17:54;;;;;;;148.55;57.53;;;2.90;99.90;;;;;;4159922;28;20030;-81
2021/01/11 06:19:54;;;;;;;145.05;53.58;;;3.00;99.90;;;;;;4177606;28;20035;-82
2021/01/11 06:21:55;;;;;;;135.73;55.58;;;3.00;99.90;;;;;;4177805;28;20052;-82
2021/01/11 06:24:16;;;;;;;139.10;56.45;;;3.00;99.90;;;;;;4177882;28;20515;-82
2021/01/11 06:26:32;;;;;;;130.18;50.58;;;3.00;99.90;;;;;;4153510;28;20156;-82
2021/01/11 06:28:35;;;;;;;135.00;53.10;;;3.00;99.90;;;;;;4179169;28;20442;-83
2021/01/11 06:30:37;;;;;;;134.50;52.42;;;3.00;99.90;;;;;;4153727;28;20033;-83
2021/01/11 06:32:38;;;;;;;125.50;53.15;;;3.00;99.90;;;;;;4178442;28;20029;-83
2021/01/11 06:34:39;;;;;;;128.68;51.47;;;3.00;99.90;;;;;;4160697;28;20099;-83
2021/01/11 06:36:40;;;;;;;131.68;54.05;;;3.00;99.90;;;;;;4178662;28;20033;-83
2021/01/11 06:38:41;;;;;;;127.18;52.30;;;3.00;99.90;;;;;;4161154;28;20041;-82
2021/01/11 06:40:42;;;;;;;128.80;55.38;;;3.00;99.90;;;;;;4179917;28;20668;-82
2021/01/11 06:42:43;;;;;;;103.68;46.80;;;3.00;99.90;;;;;;4161842;28;20518;-81
2021/01/11 06:44:49;;;;;;;115.57;50.10;;;3.00;99.90;;;;;;4166838;28;20511;-82
2021/01/11 06:46:51;;;;;;;126.35;52.65;;;3.00;99.90;;;;;;4146282;28;20038;-82
2021/01/11 06:48:57;;;;;;;122.32;50.28;;;3.00;99.90;;;;;;4170916;28;20104;-82
2021/01/11 06:51:05;;;;;;;115.10;49.50;;;3.00;99.90;;;;;;4167677;28;20018;-82
2021/01/11 06:53:05;;;;;;;105.10;50.08;;;3.00;99.90;;;;;;4165919;28;20075;-83
2021/01/11 06:55:14;;;;;;;109.80;51.38;;;3.00;99.90;;;;;;4169026;28;20025;-81
2021/01/11 06:57:23;;;;;;;87.35;40.08;;;3.00;99.90;;;;;;4146343;28;20026;-82
2021/01/11 06:59:25;;;;;;;102.82;48.75;;;3.00;99.90;;;;;;4146074;28;20038;-82
2021/01/11 07:01:28;;;;;;;111.50;49.53;;;3.10;99.90;;;;;;4163369;28;20033;-82
2021/01/11 07:03:55;;;;;;;111.35;53.20;;;3.00;99.90;;;;;;4167394;28;20044;-82
2021/01/11 07:05:55;;;;;;;107.82;53.35;;;3.00;99.90;;;;;;4173777;28;20033;-82
2021/01/11 07:08:01;;;;;;;100.38;49.22;;;3.00;99.90;;;;;;4152064;28;20445;-82
2021/01/11 07:10:02;;;;;;;108.25;53.17;;;3.00;99.90;;;;;;4176701;28;20060;-81
2021/01/11 07:12:04;;;;;;;111.20;54.10;;;3.00;99.90;;;;;;4178708;28;20032;-81
2021/01/11 07:14:06;;;;;;;111.15;54.28;;;3.00;99.90;;;;;;4145216;28;20034;-82
2021/01/11 07:16:10;;;;;;;85.38;44.40;;;3.00;99.90;;;;;;4145150;28;20069;-81
2021/01/11 07:18:37;;;;;;;104.65;53.85;;;3.00;99.90;;;;;;4161869;28;20025;-82
2021/01/11 07:20:43;;;;;;;105.80;50.92;;;3.00;99.90;;;;;;4146771;28;20124;-83
2021/01/11 07:22:47;;;;;;;95.72;49.53;;;3.00;99.90;;;;;;4147220;28;20050;-80
2021/01/11 07:24:49;;;;;;;94.75;48.15;;;3.10;99.90;;;;;;4178028;28;20041;-82
2021/01/11 07:26:50;;;;;;;102.78;52.30;;;3.10;99.90;;;;;;4177801;28;20025;-82
2021/01/11 07:29:11;;;;;;;91.55;46.53;;;3.10;99.90;;;;;;4175952;28;20384;-81
2021/01/11 07:31:17;;;;;;;96.78;49.65;;;3.00;99.90;;;;;;4177762;28;20499;-81
2021/01/11 07:33:18;;;;;;;92.90;48.40;;;3.10;99.90;;;;;;4160672;28;20031;-82
2021/01/11 07:35:19;;;;;;;86.35;44.20;;;3.10;99.90;;;;;;4168866;28;20049;-82
2021/01/11 07:37:19;;;;;;;85.13;46.75;;;3.10;99.90;;;;;;4164955;28;20425;-81
2021/01/11 07:39:22;;;;;;;72.03;38.33;;;3.10;99.90;;;;;;4165453;28;26311;-81
2021/01/11 07:41:26;;;;;;;83.53;44.80;;;3.20;99.90;;;;;;4145980;28;20033;-82
2021/01/11 07:43:27;;;;;;;74.35;40.20;;;3.20;99.90;;;;;;4163132;28;20568;-81
2021/01/11 07:45:27;;;;;;;80.68;45.28;;;3.20;99.90;;;;;;4171884;28;20045;-82
2021/01/11 07:47:28;;;;;;;69.72;35.33;;;3.20;99.90;;;;;;4172845;28;20033;-81
2021/01/11 07:49:35;;;;;;;89.22;48.00;;;3.20;99.90;;;;;;4172416;28;20369;-82
2021/01/11 07:51:36;;;;;;;75.80;44.35;;;3.20;99.90;;;;;;4172862;28;20056;-82
2021/01/11 07:53:40;;;;;;;63.63;38.90;;;3.20;99.90;;;;;;4155345;28;20531;-82
2021/01/11 07:55:41;;;;;;;72.53;40.58;;;3.20;99.90;;;;;;4174655;28;20040;-82
2021/01/11 07:57:42;;;;;;;81.35;45.60;;;3.20;99.90;;;;;;4179412;28;20036;-81
2021/01/11 07:59:43;;;;;;;69.38;40.83;;;3.20;99.90;;;;;;4180758;28;20044;-81
2021/01/11 08:01:48;;;;;;;69.72;42.25;;;3.20;99.90;;;;;;4177360;28;20064;-81
2021/01/11 08:03:54;;;;;;;72.85;43.80;;;3.20;99.90;;;;;;4175573;28;20053;-81
2021/01/11 08:06:03;;;;;;;68.40;41.20;;;3.20;99.90;;;;;;4165940;28;20037;-82
2021/01/11 08:08:07;;;;;;;60.08;35.53;;;3.20;99.90;;;;;;4159591;28;20511;-81
2021/01/11 08:10:08;;;;;;;62.90;37.80;;;3.30;99.90;;;;;;4152192;28;20030;-82
2021/01/11 08:12:11;;;;;;;70.97;38.17;;;3.30;99.90;;;;;;4167523;28;20092;-82
2021/01/11 08:14:12;;;;;;;65.97;39.85;;;3.40;99.90;;;;;;4149475;28;20464;-81
2021/01/11 08:16:14;;;;;;;62.30;38.45;;;3.30;99.90;;;;;;4152233;28;20034;-81
2021/01/11 08:18:16;;;;;;;60.60;35.63;;;3.30;99.90;;;;;;4170570;28;20033;-83
2021/01/11 08:20:26;;;;;;;62.80;39.17;;;3.40;99.90;;;;;;4178673;28;20036;-82
2021/01/11 08:22:27;;;;;;;64.18;38.97;;;3.40;99.90;;;;;;4171455;28;20571;-83
2021/01/11 08:24:28;;;;;;;57.08;34.45;;;3.40;99.90;;;;;;4152709;28;20513;-83
2021/01/11 08:26:31;;;;;;;60.35;37.58;;;3.50;99.90;;;;;;4180181;28;20116;-84
2021/01/11 08:28:33;;;;;;;56.53;34.35;;;3.40;99.90;;;;;;4169824;28;20049;-82
2021/01/11 08:30:33;;;;;;;58.78;37.75;;;3.40;99.90;;;;;;4178531;28;20033;-81
2021/01/11 08:32:39;;;;;;;58.70;35.70;;;3.40;99.90;;;;;;4160884;28;20611;-83
2021/01/11 08:34:40;;;;;;;65.80;38.53;;;3.40;99.90;;;;;;4154837;28;20120;-82
2021/01/11 08:36:41;;;;;;;54.90;36.72;;;3.40;99.90;;;;;;4161992;28;20052;-83
2021/01/11 08:39:00;;;;;;;70.53;40.00;;;3.40;99.90;;;;;;4164941;28;20076;-82
2021/01/11 08:41:09;;;;;;;54.33;33.72;;;3.40;99.90;;;;;;4180923;28;20594;-82
2021/01/11 08:43:19;;;;;;;42.25;26.52;;;3.40;99.90;;;;;;4172386;28;20025;-81
2021/01/11 08:45:52;;;;;;;57.25;36.58;;;3.40;99.90;;;;;;4180837;28;20079;-82
2021/01/11 08:48:06;;;;;;;56.40;35.78;;;3.40;99.90;;;;;;4151456;28;20244;-83
2021/01/11 08:50:07;;;;;;;;;;;3.40;99.90;;;;;;4161758;28;20053;-81
2021/01/11 08:52:10;;;;;;;58.60;32.17;;;3.40;99.90;;;;;;4177044;28;19917;-81
2021/01/11 08:54:23;;;;;;;49.90;31.88;;;3.50;99.90;;;;;;4155063;28;20042;-82
2021/01/11 08:56:27;;;;;;;50.80;33.35;;;3.50;99.90;;;;;;4150188;28;20133;-82
2021/01/11 08:58:29;;;;;;;51.08;32.50;;;3.50;99.90;;;;;;4179964;28;20147;-83
2021/01/11 09:00:30;;;;;;;55.63;34.58;;;3.50;99.90;;;;;;4180634;28;20033;-81
2021/01/11 09:02:31;;;;;;;56.80;36.88;;;3.50;99.90;;;;;;4157367;28;20531;-82
2021/01/11 09:04:36;;;;;;;55.72;37.88;;;3.60;99.90;;;;;;4160897;28;20370;-81
2021/01/11 09:06:44;;;;;;;54.22;33.63;;;3.50;99.90;;;;;;4160465;28;20037;-82
2021/01/11 09:08:44;;;;;;;55.13;34.75;;;3.50;99.90;;;;;;4172001;28;20441;-82
2021/01/11 09:10:46;;;;;;;51.60;33.70;;;3.50;99.90;;;;;;4151835;28;20065;-81
2021/01/11 09:12:47;;;;;;;52.80;34.97;;;3.50;99.90;;;;;;4168479;28;20112;-82
2021/01/11 09:14:54;;;;;;;51.88;34.25;;;3.50;99.90;;;;;;4173604;28;20033;-82
2021/01/11 09:16:57;;;;;;;50.70;31.70;;;3.50;99.90;;;;;;4152248;28;20484;-82
2021/01/11 09:19:05;;;;;;;44.47;29.27;;;3.50;99.90;;;;;;4154630;28;20041;-82
2021/01/11 09:21:07;;;;;;;53.33;33.85;;;3.60;99.90;;;;;;4179316;28;20040;-82
2021/01/11 09:23:08;;;;;;;53.75;34.65;;;3.50;99.90;;;;;;4169371;28;20032;-82
2021/01/11 09:25:11;;;;;;;52.33;32.97;;;3.60;99.90;;;;;;4180245;28;20025;-81
2021/01/11 09:27:11;;;;;;;42.08;28.48;;;3.60;99.90;;;;;;4180490;28;20383;-81
2021/01/11 09:29:12;;;;;;;48.33;33.78;;;3.60;99.90;;;;;;4180509;28;20123;-83
2021/01/11 09:31:13;;;;;;;49.65;28.52;;;3.60;99.90;;;;;;4178712;28;20029;-82
2021/01/11 09:33:13;;;;;;;43.30;29.67;;;3.60;99.90;;;;;;4162791;28;20017;-83
2021/01/11 09:35:15;;;;;;;46.50;32.28;;;3.70;99.90;;;;;;4162836;28;20033;-84
2021/01/11 09:37:16;;;;;;;45.90;29.17;;;3.60;99.90;;;;;;4177119;28;20481;-82
2021/01/11 09:39:17;;;;;;;44.83;26.88;;;3.60;99.90;;;;;;4175649;28;20086;-80
2021/01/11 09:41:18;;;;;;;45.30;29.88;;;3.70;99.90;;;;;;4177507;28;20117;-82
2021/01/11 09:43:18;;;;;;;42.30;29.63;;;3.60;99.90;;;;;;4177077;28;20029;-82
2021/01/11 09:45:19;;;;;;;48.95;31.60;;;3.70;99.90;;;;;;4156725;28;20489;-82
2021/01/11 09:47:22;;;;;;;45.55;30.05;;;3.70;99.90;;;;;;4172386;28;20070;-81
2021/01/11 09:49:23;;;;;;;46.90;30.55;;;3.70;99.90;;;;;;4177425;28;20033;-82
2021/01/11 09:51:28;;;;;;;45.13;31.42;;;3.70;99.90;;;;;;4175770;28;20038;-81
2021/01/11 09:53:29;;;;;;;36.65;22.17;;;3.70;99.90;;;;;;4174149;28;20033;-84
2021/01/11 09:55:29;;;;;;;34.63;21.52;;;3.70;99.90;;;;;;4146294;28;20583;-81
2021/01/11 09:57:35;;;;;;;43.72;28.10;;;3.70;99.90;;;;;;4175482;28;20028;-82
2021/01/11 09:59:37;;;;;;;44.30;30.10;;;3.80;99.90;;;;;;4159139;28;20040;-82
2021/01/11 10:01:43;;;;;;;39.90;26.63;;;3.80;99.90;;;;;;4161268;28;20041;-82
2021/01/11 10:03:43;;;;;;;40.45;27.02;;;3.80;99.90;;;;;;4177724;28;20122;-82
2021/01/11 10:05:44;;;;;;;39.88;26.92;;;3.90;99.90;;;;;;4158451;28;20046;-82
2021/01/11 10:07:45;;;;;;;41.17;27.00;;;3.90;99.90;;;;;;4177180;28;20446;-82
2021/01/11 10:09:45;;;;;;;32.90;22.50;;;3.90;99.90;;;;;;4174398;28;20041;-82
2021/01/11 10:11:48;;;;;;;37.35;25.65;;;4.10;99.90;;;;;;4164424;28;20066;-82
2021/01/11 10:13:49;;;;;;;36.92;25.60;;;4.10;99.90;;;;;;4167452;28;20121;-82
2021/01/11 10:15:49;;;;;;;38.50;25.75;;;4.00;99.90;;;;;;4168488;28;20060;-81
2021/01/11 10:17:50;;;;;;;35.78;25.40;;;4.00;99.90;;;;;;4177235;28;20127;-82
2021/01/11 10:19:50;;;;;;;42.35;28.25;;;3.90;99.90;;;;;;4158302;28;20059;-82
2021/01/11 10:21:52;;;;;;;35.63;25.95;;;3.90;99.90;;;;;;4154440;28;20489;-82
2021/01/11 10:23:53;;;;;;;36.90;25.73;;;3.90;99.90;;;;;;4160786;28;20453;-82
2021/01/11 10:25:53;;;;;;;40.80;26.80;;;3.90;99.90;;;;;;4176545;28;20036;-82
2021/01/11 10:27:55;;;;;;;36.28;25.92;;;4.00;99.90;;;;;;4163361;28;20711;-82
2021/01/11 10:29:56;;;;;;;34.67;24.40;;;4.00;99.90;;;;;;4159357;28;20044;-83